In Rescue
 
Open Full Screen Window  High Contrast Mode
Wind Gusting 00 knots
06
September 21, 2019 9:39 AM EDT
Weather Information
Wind Direction
  170 °
Wind Speed
  06 kt (7 mph)
Wind Gust
  00 kt (0 mph)
Altimeter
30.07 in
Visibility
10 SM
Temperature
20° C
68° F
Dewpoint
19° C
66° F
Humidity
94%
Sky Condition
Scattered @ 6,000 ft
VFR

METAR KSJX 211339Z AUTO 17006KT 10SM SCT060 20/19 A3007 RMK AO2 T02040189

FAA Disclaimer: The data displayed is for advisory purposes only and is not to be used for flight planning or operations.